Time;durP1;ratioP1;P1;durP2;ratioP2;P2;SDS_P1;SDS_P2;PMS_P1;PMS_P2;Temp;Humidity;BMP_temperature;BMP_pressure;BME280_temperature;BME280_humidity;BME280_pressure;Samples;Min_cycle;Max_cycle;Signal;HPM_P1;HPM_P2
2023/07/19 00:01:53;;;;;;;2.42;1.30;;;;;;;29.50;37.14;99494.13;5049766;28;20082;-81
2023/07/19 00:04:19;;;;;;;3.35;1.65;;;;;;;29.86;37.05;99532.34;5049566;28;20509;-82
2023/07/19 00:06:44;;;;;;;2.25;0.88;;;;;;;29.73;37.36;99538.06;5050363;28;20111;-82
2023/07/19 00:09:10;;;;;;;1.63;0.75;;;;;;;29.67;37.19;99518.78;5049516;28;20411;-82
2023/07/19 00:11:35;;;;;;;3.25;1.60;;;;;;;29.78;37.39;99541.22;5049656;28;20039;-82
2023/07/19 00:14:05;;;;;;;4.68;1.63;;;;;;;29.79;37.30;99526.59;5049123;28;20063;-81
2023/07/19 00:16:33;;;;;;;1.90;1.23;;;;;;;29.59;37.71;99530.41;5045197;28;20099;-82
2023/07/19 00:18:59;;;;;;;4.78;1.52;;;;;;;29.46;38.35;99533.47;5030145;28;20028;-82
2023/07/19 00:21:25;;;;;;;2.92;1.50;;;;;;;29.26;38.60;99500.94;5047308;28;20033;-81
2023/07/19 00:23:50;;;;;;;3.80;1.27;;;;;;;29.26;38.60;99505.53;5049670;28;20155;-84
2023/07/19 00:26:16;;;;;;;1.98;1.20;;;;;;;29.32;38.67;99513.06;5050106;28;20055;-82
2023/07/19 00:28:41;;;;;;;3.47;1.63;;;;;;;29.32;38.37;99507.66;5050158;28;20061;-82
2023/07/19 00:31:07;;;;;;;4.00;1.88;;;;;;;29.37;38.55;99518.91;5048127;28;20047;-82
2023/07/19 00:33:32;;;;;;;1.92;0.95;;;;;;;29.29;38.48;99495.22;5049149;28;20032;-82
2023/07/19 00:35:58;;;;;;;2.63;1.63;;;;;;;29.14;38.38;99493.94;5049880;28;20477;-82
2023/07/19 00:38:23;;;;;;;3.95;1.63;;;;;;;29.60;38.22;99529.41;5049638;28;20112;-83
2023/07/19 00:40:49;;;;;;;6.25;1.42;;;;;;;29.31;38.75;99521.38;5049180;28;20037;-82
2023/07/19 00:43:15;;;;;;;2.80;1.65;;;;;;;29.22;38.41;99520.38;5049773;28;20056;-85
2023/07/19 00:45:46;;;;;;;2.38;1.50;;;;;;;29.30;38.49;99547.66;5049679;28;20491;-81
2023/07/19 00:48:13;;;;;;;1.55;1.08;;;;;;;29.33;38.67;99546.53;5048531;28;20499;-82
2023/07/19 00:50:40;;;;;;;7.72;1.45;;;;;;;28.91;38.72;99496.13;5048421;28;20036;-82
2023/07/19 00:53:05;;;;;;;5.07;1.75;;;;;;;29.07;38.94;99531.69;5049700;28;20029;-81
2023/07/19 00:55:31;;;;;;;2.65;1.83;;;;;;;29.05;39.15;99536.41;5049818;28;20044;-81
2023/07/19 00:57:56;;;;;;;3.03;1.92;;;;;;;28.85;39.21;99515.72;5049281;28;20033;-82
2023/07/19 01:00:23;;;;;;;3.40;1.70;;;;;;;28.96;39.24;99506.56;5049443;28;20033;-82
2023/07/19 01:02:49;;;;;;;2.55;1.27;;;;;;;28.98;39.63;99516.28;5057531;28;20041;-82
2023/07/19 01:05:14;;;;;;;1.85;1.35;;;;;;;28.85;39.75;99523.88;5049521;28;20036;-81
2023/07/19 01:07:40;;;;;;;6.63;2.13;;;;;;;28.77;39.98;99537.31;5049091;28;20897;-81
2023/07/19 01:10:06;;;;;;;2.97;1.48;;;;;;;28.56;39.88;99501.16;5052397;28;20099;-81
2023/07/19 01:12:32;;;;;;;2.67;1.45;;;;;;;28.84;39.95;99536.59;5052453;28;20028;-82
2023/07/19 01:14:57;;;;;;;1.10;1.00;;;;;;;28.69;40.02;99530.72;5053143;28;20052;-82
2023/07/19 01:17:22;;;;;;;7.18;1.40;;;;;;;28.75;39.99;99532.03;5052506;28;20563;-81
2023/07/19 01:19:48;;;;;;;3.55;1.75;;;;;;;28.69;40.39;99532.59;5052812;28;20450;-81
2023/07/19 01:22:13;;;;;;;1.38;0.90;;;;;;;28.63;40.21;99508.75;5052879;28;20033;-82
2023/07/19 01:24:40;;;;;;;2.60;2.00;;;;;;;28.91;39.85;99520.56;5052516;28;20399;-81
2023/07/19 01:27:06;;;;;;;2.53;1.42;;;;;;;28.63;40.69;99519.59;5052845;28;20406;-81
2023/07/19 01:29:32;;;;;;;3.42;0.82;;;;;;;28.69;40.57;99530.72;5052487;28;20047;-82
2023/07/19 01:31:57;;;;;;;3.05;1.67;;;;;;;28.68;40.41;99534.44;5051897;28;20028;-82
2023/07/19 01:34:23;;;;;;;2.45;1.42;;;;;;;28.53;40.97;99496.00;5050981;28;20533;-82
2023/07/19 01:36:48;;;;;;;3.65;1.67;;;;;;;28.58;40.96;99522.72;5052809;28;20108;-82
2023/07/19 01:39:13;;;;;;;2.05;1.42;;;;;;;28.52;41.51;99526.00;5050878;28;20029;-82
2023/07/19 01:41:39;;;;;;;1.08;0.75;;;;;;;28.44;41.49;99525.84;5065624;28;20037;-81
2023/07/19 01:44:05;;;;;;;4.93;1.17;;;;;;;28.32;41.55;99542.25;5052530;28;20099;-82
2023/07/19 01:46:30;;;;;;;3.92;1.80;;;;;;;28.21;41.23;99505.28;5051674;28;20032;-82
2023/07/19 01:48:55;;;;;;;2.50;1.05;;;;;;;28.46;41.40;99532.84;5052068;28;20021;-81
2023/07/19 01:51:21;;;;;;;4.07;1.60;;;;;;;28.52;41.33;99537.69;5050826;28;20037;-82
2023/07/19 01:53:46;;;;;;;2.30;1.63;;;;;;;28.60;41.56;99526.16;5052001;28;20483;-82
2023/07/19 01:56:12;;;;;;;1.33;0.98;;;;;;;28.23;42.19;99502.41;5051721;28;20910;-83
2023/07/19 01:58:37;;;;;;;2.95;1.67;;;;;;;28.36;41.84;99530.13;5052062;28;20894;-82
2023/07/19 02:01:04;;;;;;;2.42;1.65;;;;;;;28.28;42.07;99508.25;5051875;28;20047;-83
2023/07/19 02:03:30;;;;;;;1.95;1.23;;;;;;;28.02;42.50;99497.97;5050425;28;20071;-82
2023/07/19 02:05:59;;;;;;;2.75;1.27;;;;;;;28.26;42.38;99512.97;5052391;28;20079;-83
2023/07/19 02:08:26;;;;;;;1.83;1.35;;;;;;;28.27;42.45;99517.41;5052089;28;20087;-83
2023/07/19 02:10:51;;;;;;;3.35;1.08;;;;;;;28.12;41.86;99489.84;5052329;28;20067;-83
2023/07/19 02:13:18;;;;;;;3.40;1.55;;;;;;;28.41;42.50;99532.41;5051575;28;20068;-82
2023/07/19 02:15:45;;;;;;;2.55;1.60;;;;;;;28.43;42.54;99541.25;5051958;28;20044;-82
2023/07/19 02:18:10;;;;;;;2.60;1.25;;;;;;;28.00;43.61;99499.94;5051485;28;20044;-82
2023/07/19 02:20:38;;;;;;;3.20;1.52;;;;;;;28.03;44.10;99499.66;5051744;28;20029;-81
2023/07/19 02:23:03;;;;;;;2.15;1.38;;;;;;;28.18;44.32;99543.50;5051706;28;20033;-82
2023/07/19 02:25:30;;;;;;;8.20;3.38;;;;;;;28.02;44.52;99516.94;5051257;28;20029;-81
2023/07/19 02:27:55;;;;;;;2.95;1.58;;;;;;;27.87;44.72;99504.75;5050928;28;20025;-81
2023/07/19 02:30:21;;;;;;;3.13;1.73;;;;;;;27.87;45.44;99529.16;5051010;28;20044;-82
2023/07/19 02:32:46;;;;;;;2.30;1.75;;;;;;;27.59;46.40;99518.06;5051596;28;20035;-81
2023/07/19 02:35:12;;;;;;;1.38;1.05;;;;;;;27.24;46.95;99508.47;5051864;28;20025;-82
2023/07/19 02:37:37;;;;;;;2.47;1.80;;;;;;;27.34;47.14;99535.63;5066582;28;20415;-82
2023/07/19 02:40:03;;;;;;;3.47;1.75;;;;;;;27.35;47.26;99548.16;5051165;28;20052;-81
2023/07/19 02:42:28;;;;;;;12.68;2.50;;;;;;;27.10;47.83;99530.47;5051843;28;20438;-81
2023/07/19 02:44:54;;;;;;;4.57;2.78;;;;;;;27.23;47.58;99550.06;5051178;28;20029;-82
2023/07/19 02:47:19;;;;;;;5.30;1.98;;;;;;;27.18;47.95;99538.78;5051726;28;20029;-82
2023/07/19 02:49:44;;;;;;;3.25;2.10;;;;;;;27.15;48.27;99533.63;5050744;28;20036;-82
2023/07/19 02:52:10;;;;;;;4.43;1.88;;;;;;;27.07;48.73;99528.03;5051444;28;20029;-82
2023/07/19 02:54:35;;;;;;;2.25;1.27;;;;;;;26.94;49.00;99504.75;5051182;28;20123;-82
2023/07/19 02:57:01;;;;;;;1.55;1.10;;;;;;;26.96;49.52;99513.56;5051443;28;20063;-83
2023/07/19 02:59:26;;;;;;;2.72;1.48;;;;;;;26.60;49.91;99483.25;5050587;28;20424;-83
2023/07/19 03:01:52;;;;;;;3.17;1.42;;;;;;;26.77;49.57;99502.59;5050726;28;20021;-87
2023/07/19 03:04:17;;;;;;;2.17;1.38;;;;;;;26.73;49.49;99522.81;5051516;28;20033;-83
2023/07/19 03:06:43;;;;;;;2.50;2.00;;;;;;;26.33;49.70;99475.63;5050630;28;20403;-83
2023/07/19 03:09:10;;;;;;;1.77;1.40;;;;;;;26.65;49.60;99536.97;5050122;28;20029;-84
2023/07/19 03:11:36;;;;;;;3.25;2.13;;;;;;;26.64;49.80;99554.16;5049836;28;20567;-83
2023/07/19 03:14:02;;;;;;;2.70;1.23;;;;;;;26.66;49.69;99537.84;5049517;28;20064;-82
2023/07/19 03:16:27;;;;;;;4.03;2.10;;;;;;;26.66;50.02;99546.81;5049370;28;20074;-83
2023/07/19 03:18:52;;;;;;;3.65;1.75;;;;;;;26.28;50.24;99518.44;5049595;28;20032;-84
2023/07/19 03:21:20;;;;;;;6.45;1.85;;;;;;;26.16;50.99;99512.19;5050084;28;20040;-84
2023/07/19 03:23:45;;;;;;;1.83;1.38;;;;;;;26.16;51.14;99522.16;5049805;28;20072;-84
2023/07/19 03:26:11;;;;;;;3.33;1.95;;;;;;;26.34;50.52;99547.66;5048998;28;20110;-83
2023/07/19 03:28:36;;;;;;;6.25;1.88;;;;;;;26.22;51.02;99529.75;5045931;28;20436;-84
2023/07/19 03:31:02;;;;;;;2.47;2.13;;;;;;;26.17;51.30;99522.03;5049298;28;20028;-83
2023/07/19 03:33:27;;;;;;;4.22;1.92;;;;;;;26.53;50.91;99556.94;5047951;28;20033;-82
2023/07/19 03:35:53;;;;;;;2.85;2.15;;;;;;;26.20;51.39;99504.69;5049496;28;20442;-84
2023/07/19 03:38:19;;;;;;;1.23;1.05;;;;;;;26.49;51.44;99537.38;5049184;28;20024;-82
2023/07/19 03:40:45;;;;;;;3.80;1.42;;;;;;;26.38;51.67;99524.75;5047844;28;20041;-84
2023/07/19 03:43:10;;;;;;;6.97;1.80;;;;;;;26.49;51.87;99539.22;5054135;28;20505;-84
2023/07/19 03:45:36;;;;;;;2.25;1.13;;;;;;;26.75;51.69;99556.00;5049554;28;20090;-83
2023/07/19 03:48:02;;;;;;;3.08;1.88;;;;;;;26.65;51.49;99541.50;5049407;28;20043;-83
2023/07/19 03:50:27;;;;;;;16.60;3.67;;;;;;;26.56;51.09;99525.06;5049109;28;20086;-83
2023/07/19 03:52:52;;;;;;;4.25;2.45;;;;;;;26.71;51.59;99557.25;5049824;28;20467;-84
2023/07/19 03:55:18;;;;;;;10.50;2.17;;;;;;;26.56;51.24;99530.47;5048867;28;20029;-83
2023/07/19 03:57:43;;;;;;;6.80;2.67;;;;;;;26.73;51.38;99542.59;5050237;28;20025;-84
2023/07/19 04:00:09;;;;;;;2.50;1.80;;;;;;;26.74;51.54;99532.63;5065248;28;20570;-84
2023/07/19 04:02:35;;;;;;;7.68;3.00;;;;;;;26.90;51.26;99543.03;5049220;28;20107;-83
2023/07/19 04:05:00;;;;;;;2.85;2.05;;;;;;;26.97;51.82;99555.91;5049061;28;20029;-83
2023/07/19 04:07:26;;;;;;;5.82;2.97;;;;;;;26.83;51.83;99522.88;5042700;28;20061;-85
2023/07/19 04:09:51;;;;;;;2.53;1.67;;;;;;;27.10;51.80;99528.63;5048673;28;20388;-83
2023/07/19 04:12:17;;;;;;;2.42;1.67;;;;;;;27.22;51.37;99510.47;5049202;28;20497;-83
2023/07/19 04:14:42;;;;;;;2.85;1.40;;;;;;;27.22;51.40;99515.88;5044409;28;20055;-83
2023/07/19 04:17:08;;;;;;;6.25;2.15;;;;;;;27.37;50.75;99524.50;5044292;28;20111;-83
2023/07/19 04:19:34;;;;;;;3.47;1.58;;;;;;;27.42;51.00;99532.22;5044615;28;20029;-86
2023/07/19 04:21:59;;;;;;;3.83;1.63;;;;;;;27.43;51.14;99490.63;5046010;28;20509;-82
2023/07/19 04:24:25;;;;;;;2.58;1.45;;;;;;;27.80;50.35;99528.81;5048462;28;20154;-83
2023/07/19 04:26:51;;;;;;;3.38;1.95;;;;;;;27.93;50.86;99525.88;5049641;28;20528;-84
2023/07/19 04:29:19;;;;;;;2.58;2.03;;;;;;;27.95;51.36;99512.19;5042374;28;20043;-83
2023/07/19 04:31:45;;;;;;;4.00;1.40;;;;;;;28.10;50.50;99531.63;5048311;28;20038;-83
2023/07/19 04:34:10;;;;;;;2.97;1.90;;;;;;;28.24;48.75;99504.13;5049025;28;20036;-83
2023/07/19 04:36:36;;;;;;;4.95;2.72;;;;;;;28.11;47.58;99496.25;5056710;28;21001;-84
2023/07/19 04:39:01;;;;;;;3.33;1.58;;;;;;;28.48;47.62;99502.84;5040604;28;20055;-86
2023/07/19 04:41:26;;;;;;;1.38;1.17;;;;;;;28.72;46.39;99527.72;5041297;28;20061;-86
2023/07/19 04:43:52;;;;;;;6.63;1.95;;;;;;;28.63;47.17;99511.47;5043985;28;20039;-87
2023/07/19 04:46:18;;;;;;;2.40;1.50;;;;;;;28.69;46.05;99486.47;5046087;28;20036;-83
2023/07/19 04:48:44;;;;;;;3.10;2.10;;;;;;;29.19;45.92;99531.50;5044446;28;20041;-83
2023/07/19 04:51:09;;;;;;;4.22;2.13;;;;;;;29.29;44.73;99522.38;5046785;28;20032;-83
2023/07/19 04:53:35;;;;;;;5.03;1.92;;;;;;;29.41;44.49;99531.22;5043812;28;20114;-86
2023/07/19 04:56:00;;;;;;;10.98;1.90;;;;;;;29.76;43.77;99545.91;5045453;28;20021;-85
2023/07/19 04:58:26;;;;;;;3.30;1.50;;;;;;;29.88;43.42;99535.75;5046911;28;20593;-83
2023/07/19 05:00:51;;;;;;;8.13;1.88;;;;;;;30.04;42.29;99512.47;5048503;28;20478;-84
2023/07/19 05:03:17;;;;;;;13.80;1.95;;;;;;;30.00;41.98;99490.19;5046252;28;20067;-83
2023/07/19 05:05:42;;;;;;;9.70;2.53;;;;;;;30.14;41.87;99499.69;5045606;28;20409;-83
2023/07/19 05:08:08;;;;;;;3.05;1.80;;;;;;;30.27;41.55;99497.41;5043133;28;20036;-85
2023/07/19 05:10:37;;;;;;;6.10;2.47;;;;;;;30.45;42.26;99499.31;5043655;28;20806;-85
2023/07/19 05:13:04;;;;;;;3.80;1.70;;;;;;;30.42;42.52;99497.75;5042851;28;20037;-82
2023/07/19 05:15:29;;;;;;;4.93;2.25;;;;;;;30.29;44.01;99498.13;5042103;28;20048;-82
2023/07/19 05:17:55;;;;;;;3.78;2.08;;;;;;;30.43;43.81;99509.50;5046795;28;20103;-83
2023/07/19 05:20:20;;;;;;;4.45;2.78;;;;;;;30.62;42.00;99533.84;5047714;28;20107;-82
2023/07/19 05:22:46;;;;;;;1.45;1.23;;;;;;;30.79;41.14;99542.16;5050097;28;20032;-84
2023/07/19 05:25:11;;;;;;;3.95;1.88;;;;;;;30.91;41.33;99521.84;5040639;28;20067;-86
2023/07/19 05:27:36;;;;;;;3.92;2.42;;;;;;;31.26;40.75;99541.00;5045803;28;20032;-84
2023/07/19 05:30:04;;;;;;;3.05;1.98;;;;;;;31.30;40.08;99526.03;5041058;28;20497;-83
2023/07/19 05:32:29;;;;;;;5.82;4.00;;;;;;;31.55;40.46;99529.78;5043868;28;20059;-85
2023/07/19 05:34:56;;;;;;;11.25;3.35;;;;;;;31.84;39.94;99514.88;5044870;28;20475;-85
2023/07/19 05:37:21;;;;;;;9.05;2.50;;;;;;;32.08;39.58;99519.59;5041789;28;20426;-83
2023/07/19 05:39:48;;;;;;;5.22;2.05;;;;;;;32.24;38.40;99530.56;5045289;28;21114;-84
2023/07/19 05:42:14;;;;;;;3.78;2.10;;;;;;;32.13;38.89;99495.41;5042956;28;21827;-85
2023/07/19 05:44:39;;;;;;;2.83;1.67;;;;;;;32.41;39.51;99542.38;5044004;28;20123;-86
2023/07/19 05:47:05;;;;;;;8.00;2.25;;;;;;;32.58;39.88;99545.09;5040442;28;20017;-82
2023/07/19 05:49:30;;;;;;;4.30;2.03;;;;;;;32.46;39.40;99529.06;5042247;28;20112;-84
2023/07/19 05:51:56;;;;;;;5.38;2.22;;;;;;;32.55;38.76;99531.78;5043787;28;20384;-82
2023/07/19 05:54:22;;;;;;;3.90;2.10;;;;;;;32.62;38.97;99521.91;5045160;28;20426;-82
2023/07/19 05:56:47;;;;;;;7.53;3.60;;;;;;;32.82;38.80;99536.13;5041966;28;20032;-82
2023/07/19 05:59:13;;;;;;;4.43;1.85;;;;;;;32.74;38.88;99485.09;5043783;28;20037;-85
2023/07/19 06:01:39;;;;;;;4.38;1.55;;;;;;;33.17;38.91;99539.50;5044824;28;20032;-81
2023/07/19 06:04:05;;;;;;;2.72;1.85;;;;;;;33.15;39.48;99522.41;5049128;28;20037;-83
2023/07/19 06:06:33;;;;;;;3.17;2.05;;;;;;;33.12;38.85;99528.22;5051500;28;20071;-82
2023/07/19 06:09:01;;;;;;;3.78;2.05;;;;;;;33.16;38.73;99532.34;5050714;28;20036;-84
2023/07/19 06:11:27;;;;;;;4.80;1.98;;;;;;;33.22;38.75;99519.91;5046780;28;20422;-82
2023/07/19 06:13:53;;;;;;;4.50;2.17;;;;;;;33.53;38.96;99548.16;5043241;28;20036;-83
2023/07/19 06:16:18;;;;;;;3.63;1.95;;;;;;;33.34;39.05;99513.03;5043978;28;20133;-83
2023/07/19 06:18:44;;;;;;;5.95;2.83;;;;;;;33.35;39.04;99542.06;5044534;28;20484;-82
2023/07/19 06:21:09;;;;;;;3.25;2.13;;;;;;;33.58;39.21;99541.31;5044012;28;20025;-81
2023/07/19 06:23:35;;;;;;;2.40;1.90;;;;;;;33.47;38.53;99468.75;5042763;28;20123;-83
2023/07/19 06:26:00;;;;;;;4.32;2.92;;;;;;;33.90;38.69;99519.31;5043333;28;20028;-84
2023/07/19 06:28:26;;;;;;;3.97;2.08;;;;;;;33.60;38.51;99498.25;5059875;28;20495;-84
2023/07/19 06:30:51;;;;;;;3.90;2.55;;;;;;;33.61;39.21;99498.06;5044220;28;20040;-84
2023/07/19 06:33:17;;;;;;;4.13;3.35;;;;;;;33.78;38.65;99503.50;5045353;28;20029;-82
2023/07/19 06:35:43;;;;;;;5.38;2.65;;;;;;;34.42;37.99;99503.34;5042617;28;20033;-83
2023/07/19 06:38:08;;;;;;;3.55;2.25;;;;;;;34.68;37.08;99502.97;5046246;28;20028;-86
2023/07/19 06:40:34;;;;;;;18.63;3.22;;;;;;;34.93;36.60;99508.25;5038764;28;20040;-84
2023/07/19 06:43:00;;;;;;;9.70;3.25;;;;;;;35.28;35.62;99497.63;5044934;28;20040;-85
2023/07/19 06:45:25;;;;;;;4.18;3.28;;;;;;;35.58;35.21;99514.09;5042528;28;20029;-84
2023/07/19 06:47:50;;;;;;;4.55;2.88;;;;;;;35.63;35.31;99522.59;5043632;28;20478;-85
2023/07/19 06:50:17;;;;;;;3.15;1.73;;;;;;;35.66;33.14;99490.13;5042326;28;20041;-82
2023/07/19 06:52:42;;;;;;;2.17;1.45;;;;;;;35.91;33.32;99498.06;5040561;28;20025;-82
2023/07/19 06:55:08;;;;;;;3.70;2.00;;;;;;;36.13;32.55;99507.22;5044093;28;20131;-82
2023/07/19 06:57:34;;;;;;;4.88;2.97;;;;;;;36.37;32.41;99508.75;5040523;28;20033;-83
2023/07/19 06:59:59;;;;;;;4.20;2.65;;;;;;;35.57;31.61;99474.84;5041028;28;20036;-83
2023/07/19 07:02:25;;;;;;;4.15;2.55;;;;;;;35.59;31.41;99496.56;5038182;28;20024;-82
2023/07/19 07:04:52;;;;;;;3.72;2.03;;;;;;;35.92;31.27;99480.59;5043914;28;20187;-82
2023/07/19 07:07:19;;;;;;;4.85;1.73;;;;;;;36.25;30.23;99499.31;5041383;28;20072;-84
2023/07/19 07:09:48;;;;;;;2.70;1.85;;;;;;;36.58;29.13;99497.97;5042813;28;20059;-85
2023/07/19 07:12:13;;;;;;;2.28;1.70;;;;;;;36.80;28.88;99472.22;5044621;28;20025;-83
2023/07/19 07:14:39;;;;;;;3.80;2.38;;;;;;;36.49;28.88;99494.53;5040730;28;20045;-83
2023/07/19 07:17:06;;;;;;;3.58;1.48;;;;;;;36.44;30.08;99477.78;5039888;28;20954;-83
2023/07/19 07:19:32;;;;;;;3.47;1.95;;;;;;;36.53;29.73;99469.22;5037032;28;20091;-81
2023/07/19 07:21:58;;;;;;;3.28;1.40;;;;;;;36.85;28.00;99497.19;5041865;28;20094;-85
2023/07/19 07:24:23;;;;;;;2.47;1.52;;;;;;;37.06;28.97;99457.81;5044147;28;20033;-86
2023/07/19 07:26:49;;;;;;;3.67;1.90;;;;;;;37.73;27.58;99466.47;5042245;28;20057;-86
2023/07/19 07:29:14;;;;;;;3.58;2.20;;;;;;;37.97;26.91;99464.22;5039680;28;20025;-90
2023/07/19 07:31:40;;;;;;;2.00;1.02;;;;;;;38.18;27.46;99454.16;5041774;28;20064;-86
2023/07/19 07:34:05;;;;;;;3.72;1.77;;;;;;;38.14;27.26;99486.69;5040337;28;20136;-84
2023/07/19 07:36:31;;;;;;;2.47;1.27;;;;;;;38.16;26.24;99476.34;5042784;28;20036;-86
2023/07/19 07:38:56;;;;;;;5.63;2.58;;;;;;;37.50;26.74;99474.16;5042264;28;20079;-86
2023/07/19 07:41:22;;;;;;;2.95;1.42;;;;;;;38.03;25.37;99485.41;5039918;28;20037;-87
2023/07/19 07:43:47;;;;;;;2.15;1.25;;;;;;;37.89;25.44;99432.22;5042177;28;20040;-83
2023/07/19 07:46:13;;;;;;;5.47;1.60;;;;;;;38.33;25.01;99469.41;5044858;28;20050;-85
2023/07/19 07:48:38;;;;;;;9.20;1.63;;;;;;;38.35;25.47;99446.34;5041609;28;20117;-86
2023/07/19 07:51:03;;;;;;;6.72;2.30;;;;;;;38.53;24.92;99464.97;5042646;28;20032;-86
2023/07/19 07:53:29;;;;;;;1.88;1.13;;;;;;;38.24;25.67;99459.66;5044081;28;20111;-84
2023/07/19 07:55:54;;;;;;;2.47;1.20;;;;;;;37.88;24.94;99460.81;5044728;28;20024;-85
2023/07/19 07:58:20;;;;;;;2.13;1.30;;;;;;;37.93;27.65;99463.78;5042610;28;20033;-85
2023/07/19 08:00:46;;;;;;;6.07;2.33;;;;;;;38.58;25.56;99460.53;5039847;28;20044;-86
2023/07/19 08:03:12;;;;;;;2.28;1.20;;;;;;;38.44;24.69;99465.19;5041623;28;20036;-86
2023/07/19 08:05:38;;;;;;;3.58;1.75;;;;;;;38.15;24.69;99436.94;5042521;28;20035;-86
2023/07/19 08:08:05;;;;;;;3.33;2.33;;;;;;;37.82;25.59;99453.38;5040722;28;20024;-87
2023/07/19 08:10:41;;;;;;;2.75;2.00;;;;;;;37.41;28.19;99448.72;5041660;28;20028;-85
2023/07/19 08:13:07;;;;;;;2.92;1.67;;;;;;;37.83;25.22;99455.06;5044198;28;20060;-85
2023/07/19 08:15:32;;;;;;;2.70;1.90;;;;;;;38.07;26.57;99472.09;5044005;28;20041;-85
2023/07/19 08:17:58;;;;;;;2.47;1.52;;;;;;;37.53;25.50;99474.59;5046655;28;20054;-86
2023/07/19 08:20:24;;;;;;;4.22;1.65;;;;;;;38.20;25.24;99460.28;5052293;28;20032;-86
2023/07/19 08:22:50;;;;;;;3.95;2.15;;;;;;;38.41;24.59;99431.72;5048929;28;20392;-86
2023/07/19 08:25:18;;;;;;;2.60;1.35;;;;;;;38.43;25.25;99468.16;5047038;28;20044;-85
2023/07/19 08:27:44;;;;;;;7.63;1.98;;;;;;;37.80;25.03;99463.72;5047538;28;20544;-85
2023/07/19 08:30:16;;;;;;;3.28;1.65;;;;;;;38.54;25.96;99450.97;5044407;28;20104;-87
2023/07/19 08:32:47;;;;;;;2.15;1.30;;;;;;;38.14;25.16;99442.66;5043550;28;20033;-88
2023/07/19 08:35:14;;;;;;;2.08;1.30;;;;;;;38.82;25.24;99456.34;5046306;28;20087;-85
2023/07/19 08:37:42;;;;;;;2.55;1.25;;;;;;;39.24;24.75;99452.44;5045438;28;20044;-87
2023/07/19 08:40:09;;;;;;;4.32;1.50;;;;;;;39.34;25.18;99458.38;5046998;28;20394;-87
2023/07/19 08:42:35;;;;;;;1.67;1.02;;;;;;;39.45;23.65;99432.88;5047711;28;20165;-85
2023/07/19 08:45:02;;;;;;;4.40;3.05;;;;;;;39.69;23.66;99434.06;5046576;28;20040;-86
2023/07/19 08:47:30;;;;;;;3.95;1.77;;;;;;;40.19;22.99;99443.59;5049467;28;20029;-82
2023/07/19 08:49:57;;;;;;;1.48;1.20;;;;;;;39.63;23.79;99407.34;5047879;28;20025;-84
2023/07/19 08:52:26;;;;;;;2.40;1.65;;;;;;;38.20;24.02;99399.72;5046788;28;20029;-82
2023/07/19 08:54:52;;;;;;;5.35;1.58;;;;;;;38.38;24.98;99424.72;5051017;28;20388;-81
2023/07/19 08:57:17;;;;;;;3.05;1.35;;;;;;;38.69;24.33;99420.50;5047341;28;20094;-82
2023/07/19 08:59:43;;;;;;;2.15;1.60;;;;;;;39.04;22.51;99423.00;5046053;28;20025;-82
2023/07/19 09:02:08;;;;;;;3.58;1.60;;;;;;;39.27;22.24;99407.88;5041840;28;20274;-82
2023/07/19 09:04:36;;;;;;;2.00;1.30;;;;;;;39.58;22.10;99415.47;5049681;28;20885;-82
2023/07/19 09:07:05;;;;;;;3.42;1.25;;;;;;;39.79;20.49;99417.03;5046198;28;20037;-81
2023/07/19 09:09:31;;;;;;;2.88;1.15;;;;;;;39.53;20.96;99374.72;5048574;28;20107;-82
2023/07/19 09:11:57;;;;;;;7.25;1.13;;;;;;;39.49;22.23;99414.81;5046635;28;20068;-83
2023/07/19 09:14:36;;;;;;;5.57;1.85;;;;;;;39.15;22.75;99400.31;5059351;28;20076;-82
2023/07/19 09:17:02;;;;;;;3.17;1.63;;;;;;;39.47;22.13;99383.84;5048379;28;20025;-81
2023/07/19 09:19:28;;;;;;;8.60;1.70;;;;;;;39.08;22.08;99395.84;5052989;28;20044;-84
2023/07/19 09:21:53;;;;;;;2.33;1.45;;;;;;;39.42;23.01;99396.59;5048100;28;20021;-83
2023/07/19 09:24:19;;;;;;;7.00;1.92;;;;;;;39.60;21.70;99382.97;5046307;28;20121;-82
2023/07/19 09:26:52;;;;;;;1.80;1.17;;;;;;;39.48;22.11;99362.63;5044685;28;20025;-82
2023/07/19 09:29:21;;;;;;;4.53;1.60;;;;;;;39.92;22.34;99391.28;5043639;28;20025;-83
2023/07/19 09:31:53;;;;;;;2.88;1.73;;;;;;;39.79;21.81;99394.13;5039825;28;20311;-84
2023/07/19 09:34:26;;;;;;;3.88;1.70;;;;;;;39.37;22.30;99388.97;5045954;28;20086;-82
2023/07/19 09:36:53;;;;;;;3.47;2.15;;;;;;;39.37;22.05;99350.38;5042636;28;20029;-81
2023/07/19 09:39:19;;;;;;;4.97;1.63;;;;;;;39.10;22.83;99344.09;5060043;28;20407;-81
2023/07/19 09:41:48;;;;;;;3.67;1.80;;;;;;;39.49;21.72;99336.72;5043280;28;20036;-84
2023/07/19 09:44:17;;;;;;;2.35;1.65;;;;;;;39.50;22.61;99341.16;5042376;28;20031;-82
2023/07/19 09:46:44;;;;;;;2.83;1.25;;;;;;;39.56;21.48;99346.69;5045850;28;20025;-82
2023/07/19 09:49:11;;;;;;;1.85;1.15;;;;;;;39.97;22.69;99363.00;5039266;28;20554;-83
2023/07/19 09:51:39;;;;;;;2.90;2.05;;;;;;;40.03;21.98;99359.38;5044765;28;20087;-83
2023/07/19 09:54:09;;;;;;;2.60;1.38;;;;;;;39.99;21.79;99356.19;5042450;28;20525;-83
2023/07/19 09:56:34;;;;;;;4.90;1.38;;;;;;;39.77;22.19;99349.34;5040403;28;20029;-83
2023/07/19 09:59:01;;;;;;;6.05;2.72;;;;;;;39.69;24.01;99328.38;5061067;28;20514;-82
2023/07/19 10:01:27;;;;;;;3.55;1.40;;;;;;;39.98;22.86;99357.28;5044802;28;20048;-83
2023/07/19 10:03:52;;;;;;;3.97;2.25;;;;;;;39.84;23.08;99356.50;5042566;28;20025;-84
2023/07/19 10:06:18;;;;;;;2.63;1.50;;;;;;;39.70;22.63;99339.19;5043843;28;20037;-83
2023/07/19 10:08:43;;;;;;;5.63;2.15;;;;;;;39.94;21.58;99320.13;5044739;28;20021;-82
2023/07/19 10:11:23;;;;;;;4.50;2.63;;;;;;;39.63;23.18;99330.09;5046646;28;20028;-82
2023/07/19 10:13:59;;;;;;;2.80;1.98;;;;;;;40.27;22.09;99319.88;5041171;28;20021;-83
2023/07/19 10:16:33;;;;;;;4.03;1.95;;;;;;;40.50;21.36;99320.31;5040829;28;20068;-81
2023/07/19 10:19:12;;;;;;;3.67;1.75;;;;;;;40.28;21.13;99337.28;5041092;28;20428;-83
2023/07/19 10:21:38;;;;;;;3.40;1.90;;;;;;;40.22;21.66;99318.84;5044138;28;20617;-82
2023/07/19 10:24:07;;;;;;;2.40;1.60;;;;;;;40.34;21.96;99330.84;5046758;28;20120;-84
2023/07/19 10:26:35;;;;;;;2.58;1.38;;;;;;;40.08;21.47;99318.97;5041940;28;20384;-84
2023/07/19 10:29:01;;;;;;;1.85;0.98;;;;;;;40.10;21.02;99297.50;5046596;28;20468;-84
2023/07/19 10:31:28;;;;;;;2.63;1.73;;;;;;;40.36;20.21;99291.97;5042989;28;20032;-83
2023/07/19 10:33:54;;;;;;;4.47;2.05;;;;;;;40.56;23.31;99289.84;5044209;28;20094;-83
2023/07/19 10:36:20;;;;;;;2.90;1.70;;;;;;;39.78;21.63;99309.59;5043348;28;20963;-83
2023/07/19 10:38:46;;;;;;;1.83;1.27;;;;;;;39.93;24.88;99283.41;5045648;28;20044;-82
2023/07/19 10:41:12;;;;;;;4.88;2.55;;;;;;;40.12;21.04;99313.00;5045417;28;20471;-85
2023/07/19 10:43:38;;;;;;;4.50;2.30;;;;;;;40.28;21.75;99302.22;5039181;28;20032;-84
2023/07/19 10:46:08;;;;;;;4.82;2.10;;;;;;;40.13;22.26;99285.16;5046840;28;20048;-82
2023/07/19 10:48:36;;;;;;;6.40;1.98;;;;;;;40.19;21.18;99289.75;5043400;28;20033;-84
2023/07/19 10:51:03;;;;;;;3.72;1.63;;;;;;;40.05;21.22;99285.44;5042569;28;20376;-83
2023/07/19 10:53:30;;;;;;;3.25;1.65;;;;;;;39.97;21.99;99280.19;5047465;28;20108;-85
2023/07/19 10:55:58;;;;;;;2.03;1.55;;;;;;;39.11;22.18;99254.81;5042174;28;20029;-83
2023/07/19 10:58:24;;;;;;;7.72;2.70;;;;;;;39.45;24.08;99305.13;5043305;28;20040;-85
2023/07/19 11:00:56;;;;;;;3.17;1.98;;;;;;;39.25;24.22;99255.59;5045011;28;20032;-87
2023/07/19 11:03:26;;;;;;;2.67;1.75;;;;;;;40.05;22.30;99289.03;5041259;28;20040;-84
2023/07/19 11:05:53;;;;;;;2.92;1.83;;;;;;;39.73;22.41;99279.91;5044822;28;20025;-84
2023/07/19 11:08:28;;;;;;;3.40;1.80;;;;;;;39.87;21.79;99269.63;5058009;28;20043;-84
2023/07/19 11:10:57;;;;;;;3.00;1.90;;;;;;;39.80;22.41;99289.00;5044970;28;20033;-84
2023/07/19 11:13:25;;;;;;;2.72;1.73;;;;;;;39.47;22.36;99280.91;5044357;28;20116;-84
2023/07/19 11:15:58;;;;;;;8.73;1.73;;;;;;;39.22;22.26;99281.69;5041617;28;20037;-88
2023/07/19 11:18:39;;;;;;;2.80;1.42;;;;;;;38.97;22.91;99254.00;5045198;28;20029;-82
2023/07/19 11:21:06;;;;;;;3.35;1.67;;;;;;;38.91;23.50;99266.75;5041108;28;20033;-87
2023/07/19 11:23:44;;;;;;;2.22;1.25;;;;;;;38.96;22.24;99247.66;5045103;28;20033;-84
2023/07/19 11:26:13;;;;;;;3.22;2.05;;;;;;;38.99;22.33;99252.75;5041203;28;20921;-83
2023/07/19 11:28:53;;;;;;;1.42;1.00;;;;;;;38.97;22.76;99246.56;5043157;28;20037;-85
2023/07/19 11:31:40;;;;;;;2.67;1.33;;;;;;;39.10;22.81;99247.59;5042919;28;20027;-86